sensor_id;sensor_type;location;lat;lon;timestamp;P1;durP1;ratioP1;P2;durP2;ratioP2
8592;SDS011;4334;49.982;8.398;2022-11-03T00:01:10;23.53;;;8.33;;
8592;SDS011;4334;49.982;8.398;2022-11-03T00:03:37;19.43;;;8.57;;
8592;SDS011;4334;49.982;8.398;2022-11-03T00:06:04;23.23;;;9.87;;
8592;SDS011;4334;49.982;8.398;2022-11-03T00:08:31;28.30;;;10.00;;
8592;SDS011;4334;49.982;8.398;2022-11-03T00:11:10;23.83;;;8.90;;
8592;SDS011;4334;49.982;8.398;2022-11-03T00:13:38;25.07;;;8.93;;
8592;SDS011;4334;49.982;8.398;2022-11-03T00:16:07;24.57;;;9.13;;
8592;SDS011;4334;49.982;8.398;2022-11-03T00:18:40;19.30;;;8.63;;
8592;SDS011;4334;49.982;8.398;2022-11-03T00:21:08;18.03;;;8.73;;
8592;SDS011;4334;49.982;8.398;2022-11-03T00:23:36;20.83;;;9.23;;
8592;SDS011;4334;49.982;8.398;2022-11-03T00:26:05;19.30;;;8.40;;
8592;SDS011;4334;49.982;8.398;2022-11-03T00:28:35;18.73;;;8.40;;
8592;SDS011;4334;49.982;8.398;2022-11-03T00:31:05;22.10;;;9.67;;
8592;SDS011;4334;49.982;8.398;2022-11-03T00:33:33;19.50;;;9.17;;
8592;SDS011;4334;49.982;8.398;2022-11-03T00:36:00;19.43;;;8.83;;
8592;SDS011;4334;49.982;8.398;2022-11-03T00:38:28;19.87;;;8.73;;
8592;SDS011;4334;49.982;8.398;2022-11-03T00:40:55;17.43;;;8.43;;
8592;SDS011;4334;49.982;8.398;2022-11-03T00:43:24;17.50;;;8.23;;
8592;SDS011;4334;49.982;8.398;2022-11-03T00:45:53;19.27;;;8.60;;
8592;SDS011;4334;49.982;8.398;2022-11-03T00:48:20;18.50;;;8.70;;
8592;SDS011;4334;49.982;8.398;2022-11-03T00:51:01;19.80;;;8.50;;
8592;SDS011;4334;49.982;8.398;2022-11-03T00:53:30;21.43;;;8.17;;
8592;SDS011;4334;49.982;8.398;2022-11-03T00:55:58;25.30;;;8.03;;
8592;SDS011;4334;49.982;8.398;2022-11-03T00:58:25;19.90;;;8.43;;
8592;SDS011;4334;49.982;8.398;2022-11-03T01:00:58;19.07;;;8.40;;
8592;SDS011;4334;49.982;8.398;2022-11-03T01:03:30;15.43;;;7.23;;
8592;SDS011;4334;49.982;8.398;2022-11-03T01:05:57;17.30;;;7.83;;
8592;SDS011;4334;49.982;8.398;2022-11-03T01:08:41;16.73;;;8.00;;
8592;SDS011;4334;49.982;8.398;2022-11-03T01:11:09;16.33;;;7.70;;
8592;SDS011;4334;49.982;8.398;2022-11-03T01:13:55;19.70;;;7.23;;
8592;SDS011;4334;49.982;8.398;2022-11-03T01:16:23;21.30;;;7.97;;
8592;SDS011;4334;49.982;8.398;2022-11-03T01:18:50;16.60;;;7.30;;
8592;SDS011;4334;49.982;8.398;2022-11-03T01:21:18;14.50;;;7.83;;
8592;SDS011;4334;49.982;8.398;2022-11-03T01:23:44;16.63;;;7.73;;
8592;SDS011;4334;49.982;8.398;2022-11-03T01:26:12;20.83;;;7.37;;
8592;SDS011;4334;49.982;8.398;2022-11-03T01:28:40;19.33;;;7.27;;
8592;SDS011;4334;49.982;8.398;2022-11-03T01:31:13;13.90;;;7.17;;
8592;SDS011;4334;49.982;8.398;2022-11-03T01:33:43;24.13;;;7.13;;
8592;SDS011;4334;49.982;8.398;2022-11-03T01:36:13;13.10;;;6.97;;
8592;SDS011;4334;49.982;8.398;2022-11-03T01:38:41;16.80;;;7.37;;
8592;SDS011;4334;49.982;8.398;2022-11-03T01:41:10;14.53;;;7.17;;
8592;SDS011;4334;49.982;8.398;2022-11-03T01:43:40;19.80;;;7.33;;
8592;SDS011;4334;49.982;8.398;2022-11-03T01:46:13;16.73;;;7.77;;
8592;SDS011;4334;49.982;8.398;2022-11-03T01:48:45;16.17;;;7.47;;
8592;SDS011;4334;49.982;8.398;2022-11-03T01:51:15;21.20;;;7.73;;
8592;SDS011;4334;49.982;8.398;2022-11-03T01:53:46;18.70;;;7.60;;
8592;SDS011;4334;49.982;8.398;2022-11-03T01:56:14;15.53;;;7.00;;
8592;SDS011;4334;49.982;8.398;2022-11-03T01:58:42;20.10;;;8.17;;
8592;SDS011;4334;49.982;8.398;2022-11-03T02:01:13;18.90;;;8.20;;
8592;SDS011;4334;49.982;8.398;2022-11-03T02:03:41;19.60;;;8.47;;
8592;SDS011;4334;49.982;8.398;2022-11-03T02:06:13;20.80;;;8.13;;
8592;SDS011;4334;49.982;8.398;2022-11-03T02:08:43;20.13;;;8.33;;
8592;SDS011;4334;49.982;8.398;2022-11-03T02:11:14;15.33;;;7.80;;
8592;SDS011;4334;49.982;8.398;2022-11-03T02:13:58;12.80;;;7.60;;
8592;SDS011;4334;49.982;8.398;2022-11-03T02:16:28;17.20;;;7.53;;
8592;SDS011;4334;49.982;8.398;2022-11-03T02:18:57;20.10;;;7.70;;
8592;SDS011;4334;49.982;8.398;2022-11-03T02:21:28;21.43;;;8.03;;
8592;SDS011;4334;49.982;8.398;2022-11-03T02:24:01;14.67;;;7.60;;
8592;SDS011;4334;49.982;8.398;2022-11-03T02:26:36;17.70;;;8.27;;
8592;SDS011;4334;49.982;8.398;2022-11-03T02:29:04;15.47;;;7.50;;
8592;SDS011;4334;49.982;8.398;2022-11-03T02:31:32;19.10;;;7.53;;
8592;SDS011;4334;49.982;8.398;2022-11-03T02:34:05;20.30;;;8.17;;
8592;SDS011;4334;49.982;8.398;2022-11-03T02:36:35;17.73;;;7.50;;
8592;SDS011;4334;49.982;8.398;2022-11-03T02:39:06;17.43;;;7.60;;
8592;SDS011;4334;49.982;8.398;2022-11-03T02:41:39;22.77;;;8.70;;
8592;SDS011;4334;49.982;8.398;2022-11-03T02:44:10;20.83;;;8.00;;
8592;SDS011;4334;49.982;8.398;2022-11-03T02:46:39;15.33;;;7.77;;
8592;SDS011;4334;49.982;8.398;2022-11-03T02:49:08;23.43;;;8.80;;
8592;SDS011;4334;49.982;8.398;2022-11-03T02:51:35;23.33;;;8.33;;
8592;SDS011;4334;49.982;8.398;2022-11-03T02:54:03;15.77;;;8.17;;
8592;SDS011;4334;49.982;8.398;2022-11-03T02:56:35;20.80;;;8.20;;
8592;SDS011;4334;49.982;8.398;2022-11-03T02:59:08;18.70;;;7.93;;
8592;SDS011;4334;49.982;8.398;2022-11-03T03:01:39;20.47;;;7.70;;
8592;SDS011;4334;49.982;8.398;2022-11-03T03:04:12;21.43;;;8.43;;
8592;SDS011;4334;49.982;8.398;2022-11-03T03:06:43;21.17;;;8.90;;
8592;SDS011;4334;49.982;8.398;2022-11-03T03:09:16;24.77;;;8.77;;
8592;SDS011;4334;49.982;8.398;2022-11-03T03:11:46;20.27;;;8.90;;
8592;SDS011;4334;49.982;8.398;2022-11-03T03:14:21;13.77;;;7.50;;
8592;SDS011;4334;49.982;8.398;2022-11-03T03:16:54;17.40;;;7.97;;
8592;SDS011;4334;49.982;8.398;2022-11-03T03:19:27;24.10;;;8.27;;
8592;SDS011;4334;49.982;8.398;2022-11-03T03:22:08;16.67;;;8.13;;
8592;SDS011;4334;49.982;8.398;2022-11-03T03:24:44;18.87;;;8.40;;
8592;SDS011;4334;49.982;8.398;2022-11-03T03:27:16;18.47;;;8.10;;
8592;SDS011;4334;49.982;8.398;2022-11-03T03:29:48;21.70;;;8.37;;
8592;SDS011;4334;49.982;8.398;2022-11-03T03:32:20;24.70;;;9.43;;
8592;SDS011;4334;49.982;8.398;2022-11-03T03:34:48;17.37;;;8.73;;
8592;SDS011;4334;49.982;8.398;2022-11-03T03:37:17;18.77;;;8.90;;
8592;SDS011;4334;49.982;8.398;2022-11-03T03:39:47;16.70;;;9.53;;
8592;SDS011;4334;49.982;8.398;2022-11-03T03:42:17;18.13;;;8.83;;
8592;SDS011;4334;49.982;8.398;2022-11-03T03:44:48;18.90;;;8.40;;
8592;SDS011;4334;49.982;8.398;2022-11-03T03:47:18;21.17;;;8.43;;
8592;SDS011;4334;49.982;8.398;2022-11-03T03:49:48;16.33;;;8.17;;
8592;SDS011;4334;49.982;8.398;2022-11-03T03:52:18;21.53;;;8.90;;
8592;SDS011;4334;49.982;8.398;2022-11-03T03:54:45;23.70;;;9.47;;
8592;SDS011;4334;49.982;8.398;2022-11-03T03:57:13;24.97;;;9.33;;
8592;SDS011;4334;49.982;8.398;2022-11-03T03:59:42;20.03;;;9.10;;
8592;SDS011;4334;49.982;8.398;2022-11-03T04:02:11;19.63;;;9.40;;
8592;SDS011;4334;49.982;8.398;2022-11-03T04:04:38;18.13;;;9.10;;
8592;SDS011;4334;49.982;8.398;2022-11-03T04:07:08;17.50;;;8.97;;
8592;SDS011;4334;49.982;8.398;2022-11-03T04:09:52;25.50;;;9.00;;
8592;SDS011;4334;49.982;8.398;2022-11-03T04:12:19;23.77;;;9.47;;
8592;SDS011;4334;49.982;8.398;2022-11-03T04:15:04;21.43;;;9.53;;
8592;SDS011;4334;49.982;8.398;2022-11-03T04:17:50;26.37;;;9.50;;
8592;SDS011;4334;49.982;8.398;2022-11-03T04:20:34;23.80;;;9.80;;
8592;SDS011;4334;49.982;8.398;2022-11-03T04:23:19;24.70;;;9.50;;
8592;SDS011;4334;49.982;8.398;2022-11-03T04:25:46;23.93;;;9.23;;
8592;SDS011;4334;49.982;8.398;2022-11-03T04:28:15;25.43;;;9.57;;
8592;SDS011;4334;49.982;8.398;2022-11-03T04:30:42;25.13;;;9.83;;
8592;SDS011;4334;49.982;8.398;2022-11-03T04:33:11;20.37;;;8.93;;
8592;SDS011;4334;49.982;8.398;2022-11-03T04:35:41;23.60;;;10.13;;
8592;SDS011;4334;49.982;8.398;2022-11-03T04:38:17;18.17;;;8.87;;
8592;SDS011;4334;49.982;8.398;2022-11-03T04:40:48;18.07;;;9.33;;
8592;SDS011;4334;49.982;8.398;2022-11-03T04:43:18;26.17;;;9.57;;
8592;SDS011;4334;49.982;8.398;2022-11-03T04:45:46;23.47;;;9.93;;
8592;SDS011;4334;49.982;8.398;2022-11-03T04:48:18;23.67;;;9.47;;
8592;SDS011;4334;49.982;8.398;2022-11-03T04:50:46;18.77;;;9.40;;
8592;SDS011;4334;49.982;8.398;2022-11-03T04:53:19;23.00;;;9.50;;
8592;SDS011;4334;49.982;8.398;2022-11-03T04:55:48;23.23;;;9.70;;
8592;SDS011;4334;49.982;8.398;2022-11-03T04:58:17;22.37;;;9.90;;
8592;SDS011;4334;49.982;8.398;2022-11-03T05:00:45;21.73;;;9.10;;
8592;SDS011;4334;49.982;8.398;2022-11-03T05:03:13;24.10;;;9.80;;
8592;SDS011;4334;49.982;8.398;2022-11-03T05:05:44;28.40;;;9.80;;
8592;SDS011;4334;49.982;8.398;2022-11-03T05:08:12;16.20;;;9.00;;
8592;SDS011;4334;49.982;8.398;2022-11-03T05:10:42;26.53;;;9.60;;
8592;SDS011;4334;49.982;8.398;2022-11-03T05:13:10;26.40;;;9.93;;
8592;SDS011;4334;49.982;8.398;2022-11-03T05:15:43;20.07;;;10.00;;
8592;SDS011;4334;49.982;8.398;2022-11-03T05:18:15;23.80;;;10.00;;
8592;SDS011;4334;49.982;8.398;2022-11-03T05:20:47;25.90;;;10.87;;
8592;SDS011;4334;49.982;8.398;2022-11-03T05:23:17;29.83;;;10.60;;
8592;SDS011;4334;49.982;8.398;2022-11-03T05:25:48;25.90;;;10.57;;
8592;SDS011;4334;49.982;8.398;2022-11-03T05:28:19;22.97;;;11.27;;
8592;SDS011;4334;49.982;8.398;2022-11-03T05:30:51;27.43;;;11.27;;
8592;SDS011;4334;49.982;8.398;2022-11-03T05:33:24;24.47;;;10.47;;
8592;SDS011;4334;49.982;8.398;2022-11-03T05:35:54;28.83;;;10.30;;
8592;SDS011;4334;49.982;8.398;2022-11-03T05:38:23;26.33;;;10.10;;
8592;SDS011;4334;49.982;8.398;2022-11-03T05:40:55;20.37;;;9.33;;
8592;SDS011;4334;49.982;8.398;2022-11-03T05:43:22;28.77;;;10.20;;
8592;SDS011;4334;49.982;8.398;2022-11-03T05:45:49;21.10;;;9.87;;
8592;SDS011;4334;49.982;8.398;2022-11-03T05:48:25;18.47;;;10.10;;
8592;SDS011;4334;49.982;8.398;2022-11-03T05:50:57;26.97;;;10.73;;
8592;SDS011;4334;49.982;8.398;2022-11-03T05:53:27;22.63;;;10.37;;
8592;SDS011;4334;49.982;8.398;2022-11-03T05:55:56;22.93;;;11.23;;
8592;SDS011;4334;49.982;8.398;2022-11-03T05:58:30;25.10;;;10.70;;
8592;SDS011;4334;49.982;8.398;2022-11-03T06:01:00;23.27;;;10.70;;
8592;SDS011;4334;49.982;8.398;2022-11-03T06:03:32;23.47;;;11.63;;
8592;SDS011;4334;49.982;8.398;2022-11-03T06:06:07;22.93;;;11.37;;
8592;SDS011;4334;49.982;8.398;2022-11-03T06:08:38;23.60;;;11.07;;
8592;SDS011;4334;49.982;8.398;2022-11-03T06:11:07;27.60;;;11.37;;
8592;SDS011;4334;49.982;8.398;2022-11-03T06:13:44;22.50;;;10.53;;
8592;SDS011;4334;49.982;8.398;2022-11-03T06:16:23;29.23;;;11.57;;
8592;SDS011;4334;49.982;8.398;2022-11-03T06:19:11;24.53;;;11.07;;
8592;SDS011;4334;49.982;8.398;2022-11-03T06:21:50;22.30;;;10.40;;
8592;SDS011;4334;49.982;8.398;2022-11-03T06:24:19;28.93;;;9.97;;
8592;SDS011;4334;49.982;8.398;2022-11-03T06:26:48;23.23;;;10.57;;
8592;SDS011;4334;49.982;8.398;2022-11-03T06:29:16;19.57;;;10.13;;
8592;SDS011;4334;49.982;8.398;2022-11-03T06:31:45;27.53;;;10.07;;
8592;SDS011;4334;49.982;8.398;2022-11-03T06:34:21;30.50;;;10.43;;
8592;SDS011;4334;49.982;8.398;2022-11-03T06:37:04;24.13;;;10.57;;
8592;SDS011;4334;49.982;8.398;2022-11-03T06:39:45;23.27;;;10.60;;
8592;SDS011;4334;49.982;8.398;2022-11-03T06:42:18;21.40;;;10.70;;
8592;SDS011;4334;49.982;8.398;2022-11-03T06:44:47;27.70;;;11.27;;
8592;SDS011;4334;49.982;8.398;2022-11-03T06:47:19;26.40;;;10.97;;
8592;SDS011;4334;49.982;8.398;2022-11-03T06:49:48;25.80;;;10.07;;
8592;SDS011;4334;49.982;8.398;2022-11-03T06:52:25;20.03;;;10.87;;
8592;SDS011;4334;49.982;8.398;2022-11-03T06:55:07;20.47;;;10.27;;
8592;SDS011;4334;49.982;8.398;2022-11-03T06:57:47;22.83;;;10.60;;
8592;SDS011;4334;49.982;8.398;2022-11-03T07:00:23;23.50;;;10.57;;
8592;SDS011;4334;49.982;8.398;2022-11-03T07:02:54;24.27;;;10.27;;
8592;SDS011;4334;49.982;8.398;2022-11-03T07:05:25;18.03;;;10.03;;
8592;SDS011;4334;49.982;8.398;2022-11-03T07:07:55;27.37;;;10.57;;
8592;SDS011;4334;49.982;8.398;2022-11-03T07:10:25;18.20;;;10.33;;
8592;SDS011;4334;49.982;8.398;2022-11-03T07:13:05;18.93;;;10.03;;
8592;SDS011;4334;49.982;8.398;2022-11-03T07:15:38;20.33;;;10.33;;
8592;SDS011;4334;49.982;8.398;2022-11-03T07:18:12;20.30;;;9.97;;
8592;SDS011;4334;49.982;8.398;2022-11-03T07:20:46;16.90;;;9.27;;
8592;SDS011;4334;49.982;8.398;2022-11-03T07:23:16;18.20;;;8.70;;
8592;SDS011;4334;49.982;8.398;2022-11-03T07:25:47;17.30;;;8.53;;
8592;SDS011;4334;49.982;8.398;2022-11-03T07:28:18;17.43;;;7.83;;
8592;SDS011;4334;49.982;8.398;2022-11-03T07:30:47;18.23;;;8.33;;
8592;SDS011;4334;49.982;8.398;2022-11-03T07:33:15;16.57;;;8.53;;
8592;SDS011;4334;49.982;8.398;2022-11-03T07:35:45;20.23;;;7.37;;
8592;SDS011;4334;49.982;8.398;2022-11-03T07:38:17;14.60;;;7.60;;
8592;SDS011;4334;49.982;8.398;2022-11-03T07:43:37;19.93;;;7.43;;
8592;SDS011;4334;49.982;8.398;2022-11-03T07:46:14;16.77;;;6.93;;
8592;SDS011;4334;49.982;8.398;2022-11-03T07:48:46;11.43;;;6.13;;
8592;SDS011;4334;49.982;8.398;2022-11-03T07:51:15;16.57;;;6.90;;
8592;SDS011;4334;49.982;8.398;2022-11-03T07:53:47;12.03;;;6.27;;
8592;SDS011;4334;49.982;8.398;2022-11-03T07:56:24;12.57;;;6.50;;
8592;SDS011;4334;49.982;8.398;2022-11-03T07:58:53;14.83;;;6.83;;
8592;SDS011;4334;49.982;8.398;2022-11-03T08:01:26;13.63;;;6.03;;
8592;SDS011;4334;49.982;8.398;2022-11-03T08:03:56;14.07;;;5.87;;
8592;SDS011;4334;49.982;8.398;2022-11-03T08:06:26;13.87;;;6.13;;
8592;SDS011;4334;49.982;8.398;2022-11-03T08:08:54;13.70;;;5.80;;
8592;SDS011;4334;49.982;8.398;2022-11-03T08:11:21;12.43;;;5.53;;
8592;SDS011;4334;49.982;8.398;2022-11-03T08:13:49;11.50;;;5.70;;
8592;SDS011;4334;49.982;8.398;2022-11-03T08:16:16;10.73;;;5.07;;
8592;SDS011;4334;49.982;8.398;2022-11-03T08:18:44;14.80;;;5.90;;
8592;SDS011;4334;49.982;8.398;2022-11-03T08:21:11;12.13;;;5.77;;
8592;SDS011;4334;49.982;8.398;2022-11-03T08:23:38;13.67;;;5.93;;
8592;SDS011;4334;49.982;8.398;2022-11-03T08:26:08;12.47;;;5.73;;
8592;SDS011;4334;49.982;8.398;2022-11-03T08:28:38;13.67;;;6.70;;
8592;SDS011;4334;49.982;8.398;2022-11-03T08:31:07;17.77;;;6.70;;
8592;SDS011;4334;49.982;8.398;2022-11-03T08:33:37;13.10;;;7.30;;
8592;SDS011;4334;49.982;8.398;2022-11-03T08:36:04;20.73;;;7.30;;
8592;SDS011;4334;49.982;8.398;2022-11-03T08:38:32;17.43;;;7.20;;
8592;SDS011;4334;49.982;8.398;2022-11-03T08:40:59;14.47;;;7.03;;
8592;SDS011;4334;49.982;8.398;2022-11-03T08:43:28;14.10;;;6.77;;
8592;SDS011;4334;49.982;8.398;2022-11-03T08:45:55;11.70;;;6.43;;
8592;SDS011;4334;49.982;8.398;2022-11-03T08:48:24;16.07;;;6.50;;
8592;SDS011;4334;49.982;8.398;2022-11-03T08:50:58;13.93;;;6.40;;
8592;SDS011;4334;49.982;8.398;2022-11-03T08:53:25;14.43;;;6.23;;
8592;SDS011;4334;49.982;8.398;2022-11-03T08:56:02;13.80;;;6.30;;
8592;SDS011;4334;49.982;8.398;2022-11-03T08:58:31;10.23;;;5.90;;
8592;SDS011;4334;49.982;8.398;2022-11-03T09:00:58;11.93;;;5.77;;
8592;SDS011;4334;49.982;8.398;2022-11-03T09:03:25;15.97;;;6.13;;
8592;SDS011;4334;49.982;8.398;2022-11-03T09:06:03;14.43;;;5.93;;
8592;SDS011;4334;49.982;8.398;2022-11-03T09:08:30;11.63;;;5.30;;
8592;SDS011;4334;49.982;8.398;2022-11-03T09:10:57;11.20;;;5.10;;
8592;SDS011;4334;49.982;8.398;2022-11-03T09:13:27;11.53;;;5.50;;
8592;SDS011;4334;49.982;8.398;2022-11-03T09:15:55;10.90;;;5.80;;
8592;SDS011;4334;49.982;8.398;2022-11-03T09:18:22;12.00;;;5.40;;
8592;SDS011;4334;49.982;8.398;2022-11-03T09:20:49;14.33;;;5.67;;
8592;SDS011;4334;49.982;8.398;2022-11-03T09:23:19;12.23;;;6.00;;
8592;SDS011;4334;49.982;8.398;2022-11-03T09:25:46;11.57;;;5.73;;
8592;SDS011;4334;49.982;8.398;2022-11-03T09:28:13;9.73;;;5.53;;
8592;SDS011;4334;49.982;8.398;2022-11-03T09:30:40;16.90;;;5.90;;
8592;SDS011;4334;49.982;8.398;2022-11-03T09:33:09;12.90;;;6.23;;
8592;SDS011;4334;49.982;8.398;2022-11-03T09:35:36;8.83;;;5.17;;
8592;SDS011;4334;49.982;8.398;2022-11-03T09:38:03;14.43;;;5.90;;
8592;SDS011;4334;49.982;8.398;2022-11-03T09:40:31;12.23;;;5.60;;
8592;SDS011;4334;49.982;8.398;2022-11-03T09:42:59;13.17;;;5.20;;
8592;SDS011;4334;49.982;8.398;2022-11-03T09:45:26;9.47;;;5.17;;
8592;SDS011;4334;49.982;8.398;2022-11-03T09:47:53;15.10;;;5.87;;
8592;SDS011;4334;49.982;8.398;2022-11-03T09:50:21;11.53;;;5.57;;
8592;SDS011;4334;49.982;8.398;2022-11-03T09:52:49;13.40;;;5.27;;
8592;SDS011;4334;49.982;8.398;2022-11-03T09:55:20;13.67;;;5.43;;
8592;SDS011;4334;49.982;8.398;2022-11-03T09:57:48;9.13;;;5.33;;
8592;SDS011;4334;49.982;8.398;2022-11-03T10:00:18;14.70;;;5.50;;
8592;SDS011;4334;49.982;8.398;2022-11-03T10:02:47;10.33;;;5.70;;
8592;SDS011;4334;49.982;8.398;2022-11-03T10:05:16;12.97;;;5.40;;
8592;SDS011;4334;49.982;8.398;2022-11-03T10:07:48;10.73;;;4.90;;
8592;SDS011;4334;49.982;8.398;2022-11-03T10:10:17;7.67;;;4.63;;
8592;SDS011;4334;49.982;8.398;2022-11-03T10:12:45;12.80;;;4.90;;
8592;SDS011;4334;49.982;8.398;2022-11-03T10:15:14;10.67;;;5.37;;
8592;SDS011;4334;49.982;8.398;2022-11-03T10:17:42;13.13;;;5.80;;
8592;SDS011;4334;49.982;8.398;2022-11-03T10:20:10;13.37;;;5.17;;
8592;SDS011;4334;49.982;8.398;2022-11-03T10:22:38;11.53;;;5.70;;
8592;SDS011;4334;49.982;8.398;2022-11-03T10:25:27;13.03;;;5.57;;
8592;SDS011;4334;49.982;8.398;2022-11-03T10:28:10;13.03;;;5.23;;
8592;SDS011;4334;49.982;8.398;2022-11-03T10:30:48;11.63;;;5.60;;
8592;SDS011;4334;49.982;8.398;2022-11-03T10:36:03;9.13;;;4.43;;
8592;SDS011;4334;49.982;8.398;2022-11-03T10:38:31;7.97;;;4.60;;
8592;SDS011;4334;49.982;8.398;2022-11-03T10:41:10;8.60;;;4.40;;
8592;SDS011;4334;49.982;8.398;2022-11-03T10:43:40;10.10;;;4.70;;
8592;SDS011;4334;49.982;8.398;2022-11-03T10:46:10;9.50;;;4.60;;
8592;SDS011;4334;49.982;8.398;2022-11-03T10:48:40;10.10;;;4.70;;
8592;SDS011;4334;49.982;8.398;2022-11-03T10:51:08;12.13;;;5.10;;
8592;SDS011;4334;49.982;8.398;2022-11-03T10:53:37;8.37;;;4.47;;
8592;SDS011;4334;49.982;8.398;2022-11-03T10:56:06;10.10;;;4.50;;
8592;SDS011;4334;49.982;8.398;2022-11-03T10:58:35;9.87;;;4.90;;
8592;SDS011;4334;49.982;8.398;2022-11-03T11:01:03;10.40;;;5.07;;
8592;SDS011;4334;49.982;8.398;2022-11-03T11:03:40;9.73;;;4.50;;
8592;SDS011;4334;49.982;8.398;2022-11-03T11:06:15;10.40;;;4.20;;
8592;SDS011;4334;49.982;8.398;2022-11-03T11:08:44;8.53;;;3.97;;
8592;SDS011;4334;49.982;8.398;2022-11-03T11:11:12;9.60;;;4.80;;
8592;SDS011;4334;49.982;8.398;2022-11-03T11:13:42;9.87;;;4.60;;
8592;SDS011;4334;49.982;8.398;2022-11-03T11:19:09;9.63;;;4.50;;
8592;SDS011;4334;49.982;8.398;2022-11-03T11:24:57;8.43;;;4.90;;
8592;SDS011;4334;49.982;8.398;2022-11-03T11:33:13;11.03;;;5.30;;
8592;SDS011;4334;49.982;8.398;2022-11-03T11:47:33;10.53;;;4.80;;
8592;SDS011;4334;49.982;8.398;2022-11-03T11:50:16;9.93;;;5.00;;
8592;SDS011;4334;49.982;8.398;2022-11-03T11:52:49;9.50;;;5.00;;
8592;SDS011;4334;49.982;8.398;2022-11-03T11:55:24;13.10;;;5.37;;
8592;SDS011;4334;49.982;8.398;2022-11-03T11:57:55;9.93;;;4.50;;
8592;SDS011;4334;49.982;8.398;2022-11-03T12:00:24;11.10;;;5.03;;
8592;SDS011;4334;49.982;8.398;2022-11-03T12:02:52;11.60;;;4.47;;
8592;SDS011;4334;49.982;8.398;2022-11-03T12:05:23;12.53;;;5.37;;
8592;SDS011;4334;49.982;8.398;2022-11-03T12:07:52;11.53;;;5.70;;
8592;SDS011;4334;49.982;8.398;2022-11-03T12:10:20;10.30;;;5.40;;
8592;SDS011;4334;49.982;8.398;2022-11-03T12:12:50;8.57;;;5.37;;
8592;SDS011;4334;49.982;8.398;2022-11-03T12:21:00;13.10;;;5.40;;
8592;SDS011;4334;49.982;8.398;2022-11-03T12:23:33;12.73;;;5.27;;
8592;SDS011;4334;49.982;8.398;2022-11-03T12:26:01;13.03;;;5.67;;
8592;SDS011;4334;49.982;8.398;2022-11-03T12:28:29;11.33;;;5.00;;
8592;SDS011;4334;49.982;8.398;2022-11-03T12:30:57;10.17;;;4.93;;
8592;SDS011;4334;49.982;8.398;2022-11-03T12:33:24;9.23;;;5.00;;
8592;SDS011;4334;49.982;8.398;2022-11-03T12:35:51;9.87;;;5.17;;
8592;SDS011;4334;49.982;8.398;2022-11-03T12:38:20;12.47;;;5.27;;
8592;SDS011;4334;49.982;8.398;2022-11-03T12:40:47;9.57;;;4.63;;
8592;SDS011;4334;49.982;8.398;2022-11-03T12:43:14;9.43;;;5.13;;
8592;SDS011;4334;49.982;8.398;2022-11-03T12:45:41;10.90;;;4.90;;
8592;SDS011;4334;49.982;8.398;2022-11-03T12:48:08;13.63;;;5.20;;
8592;SDS011;4334;49.982;8.398;2022-11-03T12:50:37;13.23;;;5.53;;
8592;SDS011;4334;49.982;8.398;2022-11-03T12:53:04;12.23;;;5.30;;
8592;SDS011;4334;49.982;8.398;2022-11-03T12:55:35;10.77;;;4.73;;
8592;SDS011;4334;49.982;8.398;2022-11-03T12:58:02;10.23;;;5.20;;
8592;SDS011;4334;49.982;8.398;2022-11-03T13:00:32;8.00;;;4.77;;
8592;SDS011;4334;49.982;8.398;2022-11-03T13:02:59;9.27;;;4.53;;
8592;SDS011;4334;49.982;8.398;2022-11-03T13:05:26;11.33;;;5.27;;
8592;SDS011;4334;49.982;8.398;2022-11-03T13:07:53;7.80;;;4.70;;
8592;SDS011;4334;49.982;8.398;2022-11-03T13:10:19;11.43;;;5.13;;
8592;SDS011;4334;49.982;8.398;2022-11-03T13:12:48;9.40;;;5.00;;
8592;SDS011;4334;49.982;8.398;2022-11-03T13:15:14;10.47;;;4.43;;
8592;SDS011;4334;49.982;8.398;2022-11-03T13:17:42;12.10;;;5.13;;
8592;SDS011;4334;49.982;8.398;2022-11-03T13:20:09;13.63;;;4.60;;
8592;SDS011;4334;49.982;8.398;2022-11-03T13:22:38;12.40;;;4.80;;
8592;SDS011;4334;49.982;8.398;2022-11-03T13:25:06;12.70;;;4.73;;
8592;SDS011;4334;49.982;8.398;2022-11-03T13:27:34;9.37;;;4.30;;
8592;SDS011;4334;49.982;8.398;2022-11-03T13:33:00;11.67;;;4.57;;
8592;SDS011;4334;49.982;8.398;2022-11-03T13:35:27;10.83;;;4.67;;
8592;SDS011;4334;49.982;8.398;2022-11-03T13:37:54;11.37;;;4.63;;
8592;SDS011;4334;49.982;8.398;2022-11-03T13:40:20;10.20;;;4.70;;
8592;SDS011;4334;49.982;8.398;2022-11-03T13:42:48;9.87;;;4.33;;
8592;SDS011;4334;49.982;8.398;2022-11-03T13:45:14;11.00;;;4.70;;
8592;SDS011;4334;49.982;8.398;2022-11-03T13:47:43;10.83;;;4.77;;
8592;SDS011;4334;49.982;8.398;2022-11-03T13:50:09;14.00;;;4.23;;
8592;SDS011;4334;49.982;8.398;2022-11-03T13:52:36;10.47;;;4.97;;
8592;SDS011;4334;49.982;8.398;2022-11-03T13:55:04;8.23;;;4.43;;
8592;SDS011;4334;49.982;8.398;2022-11-03T13:57:31;10.60;;;4.30;;
8592;SDS011;4334;49.982;8.398;2022-11-03T13:59:59;14.80;;;4.73;;
8592;SDS011;4334;49.982;8.398;2022-11-03T14:02:26;11.53;;;4.60;;
8592;SDS011;4334;49.982;8.398;2022-11-03T14:04:57;9.43;;;4.60;;
8592;SDS011;4334;49.982;8.398;2022-11-03T14:07:24;9.70;;;4.80;;
8592;SDS011;4334;49.982;8.398;2022-11-03T14:09:51;7.57;;;4.27;;
8592;SDS011;4334;49.982;8.398;2022-11-03T14:12:18;14.93;;;4.90;;
8592;SDS011;4334;49.982;8.398;2022-11-03T14:14:58;9.40;;;4.60;;
8592;SDS011;4334;49.982;8.398;2022-11-03T14:17:28;10.87;;;4.83;;
8592;SDS011;4334;49.982;8.398;2022-11-03T14:19:55;13.03;;;4.67;;
8592;SDS011;4334;49.982;8.398;2022-11-03T14:22:24;8.47;;;3.93;;
8592;SDS011;4334;49.982;8.398;2022-11-03T14:24:51;13.03;;;4.70;;
8592;SDS011;4334;49.982;8.398;2022-11-03T14:27:18;13.27;;;4.73;;
8592;SDS011;4334;49.982;8.398;2022-11-03T14:29:45;11.37;;;4.37;;
8592;SDS011;4334;49.982;8.398;2022-11-03T14:32:13;9.23;;;4.60;;
8592;SDS011;4334;49.982;8.398;2022-11-03T14:34:41;9.17;;;4.90;;
8592;SDS011;4334;49.982;8.398;2022-11-03T14:37:08;11.10;;;4.23;;
8592;SDS011;4334;49.982;8.398;2022-11-03T14:39:37;9.63;;;5.20;;
8592;SDS011;4334;49.982;8.398;2022-11-03T14:42:04;8.53;;;4.73;;
8592;SDS011;4334;49.982;8.398;2022-11-03T14:44:33;7.37;;;4.30;;
8592;SDS011;4334;49.982;8.398;2022-11-03T14:47:02;9.63;;;4.53;;
8592;SDS011;4334;49.982;8.398;2022-11-03T14:49:32;11.80;;;5.20;;
8592;SDS011;4334;49.982;8.398;2022-11-03T14:52:00;9.27;;;4.57;;
8592;SDS011;4334;49.982;8.398;2022-11-03T14:54:27;10.93;;;4.83;;
8592;SDS011;4334;49.982;8.398;2022-11-03T14:56:57;13.20;;;4.70;;
8592;SDS011;4334;49.982;8.398;2022-11-03T14:59:29;7.80;;;4.47;;
8592;SDS011;4334;49.982;8.398;2022-11-03T15:01:56;8.80;;;5.10;;
8592;SDS011;4334;49.982;8.398;2022-11-03T15:04:23;13.17;;;5.43;;
8592;SDS011;4334;49.982;8.398;2022-11-03T15:06:50;10.97;;;5.60;;
8592;SDS011;4334;49.982;8.398;2022-11-03T15:09:17;11.40;;;6.60;;
8592;SDS011;4334;49.982;8.398;2022-11-03T15:11:45;11.20;;;5.00;;
8592;SDS011;4334;49.982;8.398;2022-11-03T15:14:13;12.80;;;5.73;;
8592;SDS011;4334;49.982;8.398;2022-11-03T15:16:41;8.97;;;4.80;;
8592;SDS011;4334;49.982;8.398;2022-11-03T15:19:10;8.97;;;5.03;;
8592;SDS011;4334;49.982;8.398;2022-11-03T15:21:40;14.63;;;5.83;;
8592;SDS011;4334;49.982;8.398;2022-11-03T15:24:07;11.67;;;5.30;;
8592;SDS011;4334;49.982;8.398;2022-11-03T15:26:34;12.67;;;5.40;;
8592;SDS011;4334;49.982;8.398;2022-11-03T15:29:00;10.47;;;5.27;;
8592;SDS011;4334;49.982;8.398;2022-11-03T15:31:29;11.23;;;5.47;;
8592;SDS011;4334;49.982;8.398;2022-11-03T15:33:56;9.70;;;5.50;;
8592;SDS011;4334;49.982;8.398;2022-11-03T15:36:22;12.33;;;5.30;;
8592;SDS011;4334;49.982;8.398;2022-11-03T15:38:49;12.73;;;5.40;;
8592;SDS011;4334;49.982;8.398;2022-11-03T15:41:16;11.03;;;5.57;;
8592;SDS011;4334;49.982;8.398;2022-11-03T15:43:44;8.00;;;4.87;;
8592;SDS011;4334;49.982;8.398;2022-11-03T15:46:11;10.67;;;5.40;;
8592;SDS011;4334;49.982;8.398;2022-11-03T15:48:40;11.47;;;5.30;;
8592;SDS011;4334;49.982;8.398;2022-11-03T15:51:07;11.43;;;5.10;;
8592;SDS011;4334;49.982;8.398;2022-11-03T15:53:35;11.80;;;5.20;;
8592;SDS011;4334;49.982;8.398;2022-11-03T15:56:02;10.87;;;5.10;;
8592;SDS011;4334;49.982;8.398;2022-11-03T15:58:29;11.63;;;5.10;;